sensor_id;sensor_type;location;lat;lon;timestamp;temperature;humidity
30244;DHT22;64022;53.652;9.792;2023-03-30T00:02:11;19.70;57.80
30244;DHT22;64022;53.652;9.792;2023-03-30T00:04:37;19.70;57.80
30244;DHT22;64022;53.652;9.792;2023-03-30T00:07:06;19.70;57.80
30244;DHT22;64022;53.652;9.792;2023-03-30T00:09:32;19.70;57.80
30244;DHT22;64022;53.652;9.792;2023-03-30T00:11:58;19.70;57.70
30244;DHT22;64022;53.652;9.792;2023-03-30T00:14:28;19.70;57.70
30244;DHT22;64022;53.652;9.792;2023-03-30T00:16:56;19.70;57.70
30244;DHT22;64022;53.652;9.792;2023-03-30T00:19:22;19.70;57.70
30244;DHT22;64022;53.652;9.792;2023-03-30T00:21:47;19.70;57.70
30244;DHT22;64022;53.652;9.792;2023-03-30T00:24:14;19.70;57.70
30244;DHT22;64022;53.652;9.792;2023-03-30T00:26:39;19.70;57.70
30244;DHT22;64022;53.652;9.792;2023-03-30T00:29:05;19.70;57.70
30244;DHT22;64022;53.652;9.792;2023-03-30T00:31:31;19.70;57.70
30244;DHT22;64022;53.652;9.792;2023-03-30T00:33:57;19.70;57.70
30244;DHT22;64022;53.652;9.792;2023-03-30T00:36:22;19.70;57.60
30244;DHT22;64022;53.652;9.792;2023-03-30T00:38:48;19.70;57.60
30244;DHT22;64022;53.652;9.792;2023-03-30T00:41:14;19.70;57.60
30244;DHT22;64022;53.652;9.792;2023-03-30T00:44:00;19.70;57.60
30244;DHT22;64022;53.652;9.792;2023-03-30T00:46:27;19.70;57.50
30244;DHT22;64022;53.652;9.792;2023-03-30T00:48:55;19.70;57.60
30244;DHT22;64022;53.652;9.792;2023-03-30T00:51:24;19.70;57.60
30244;DHT22;64022;53.652;9.792;2023-03-30T00:53:51;19.70;57.60
30244;DHT22;64022;53.652;9.792;2023-03-30T00:56:22;19.70;57.60
30244;DHT22;64022;53.652;9.792;2023-03-30T00:58:51;19.70;57.60
30244;DHT22;64022;53.652;9.792;2023-03-30T01:01:18;19.70;57.50
30244;DHT22;64022;53.652;9.792;2023-03-30T01:03:50;19.70;57.50
30244;DHT22;64022;53.652;9.792;2023-03-30T01:06:16;19.70;57.50
30244;DHT22;64022;53.652;9.792;2023-03-30T01:08:46;19.70;57.50
30244;DHT22;64022;53.652;9.792;2023-03-30T01:11:12;19.70;57.50
30244;DHT22;64022;53.652;9.792;2023-03-30T01:13:43;19.70;57.50
30244;DHT22;64022;53.652;9.792;2023-03-30T01:27:42;19.60;57.40
30244;DHT22;64022;53.652;9.792;2023-03-30T01:33:32;19.70;57.40
30244;DHT22;64022;53.652;9.792;2023-03-30T01:44:22;19.70;57.40
30244;DHT22;64022;53.652;9.792;2023-03-30T01:46:56;19.60;57.30
30244;DHT22;64022;53.652;9.792;2023-03-30T01:49:35;19.70;57.40
30244;DHT22;64022;53.652;9.792;2023-03-30T01:52:14;19.60;57.30
30244;DHT22;64022;53.652;9.792;2023-03-30T01:54:49;19.60;57.30
30244;DHT22;64022;53.652;9.792;2023-03-30T01:57:19;19.70;57.40
30244;DHT22;64022;53.652;9.792;2023-03-30T01:59:56;19.60;57.30
30244;DHT22;64022;53.652;9.792;2023-03-30T02:02:27;19.70;57.30
30244;DHT22;64022;53.652;9.792;2023-03-30T02:04:56;19.60;57.30
30244;DHT22;64022;53.652;9.792;2023-03-30T02:07:24;19.70;57.30
30244;DHT22;64022;53.652;9.792;2023-03-30T02:09:55;19.70;57.30
30244;DHT22;64022;53.652;9.792;2023-03-30T02:12:22;19.70;57.30
30244;DHT22;64022;53.652;9.792;2023-03-30T02:14:50;19.70;57.30
30244;DHT22;64022;53.652;9.792;2023-03-30T02:17:20;19.70;57.30
30244;DHT22;64022;53.652;9.792;2023-03-30T02:19:47;19.60;57.20
30244;DHT22;64022;53.652;9.792;2023-03-30T02:22:15;19.60;57.20
30244;DHT22;64022;53.652;9.792;2023-03-30T02:24:43;19.60;57.20
30244;DHT22;64022;53.652;9.792;2023-03-30T02:27:09;19.60;57.20
30244;DHT22;64022;53.652;9.792;2023-03-30T02:29:36;19.70;57.20
30244;DHT22;64022;53.652;9.792;2023-03-30T02:32:04;19.60;57.10
30244;DHT22;64022;53.652;9.792;2023-03-30T02:37:17;19.70;57.20
30244;DHT22;64022;53.652;9.792;2023-03-30T02:45:51;19.60;57.10
30244;DHT22;64022;53.652;9.792;2023-03-30T02:51:23;19.60;57.20
30244;DHT22;64022;53.652;9.792;2023-03-30T02:54:08;19.60;57.00
30244;DHT22;64022;53.652;9.792;2023-03-30T02:56:47;19.60;57.10
30244;DHT22;64022;53.652;9.792;2023-03-30T02:59:19;19.60;57.10
30244;DHT22;64022;53.652;9.792;2023-03-30T03:02:11;19.60;57.10
30244;DHT22;64022;53.652;9.792;2023-03-30T03:04:38;19.60;57.00
30244;DHT22;64022;53.652;9.792;2023-03-30T03:07:08;19.60;57.10
30244;DHT22;64022;53.652;9.792;2023-03-30T03:09:34;19.60;57.10
30244;DHT22;64022;53.652;9.792;2023-03-30T03:12:01;19.60;57.10
30244;DHT22;64022;53.652;9.792;2023-03-30T03:14:26;19.60;57.10
30244;DHT22;64022;53.652;9.792;2023-03-30T03:16:53;19.60;57.10
30244;DHT22;64022;53.652;9.792;2023-03-30T03:19:19;19.60;57.10
30244;DHT22;64022;53.652;9.792;2023-03-30T03:21:45;19.60;57.00
30244;DHT22;64022;53.652;9.792;2023-03-30T03:24:10;19.60;57.00
30244;DHT22;64022;53.652;9.792;2023-03-30T03:26:38;19.60;57.10
30244;DHT22;64022;53.652;9.792;2023-03-30T03:29:04;19.60;57.00
30244;DHT22;64022;53.652;9.792;2023-03-30T03:31:29;19.60;57.00
30244;DHT22;64022;53.652;9.792;2023-03-30T03:33:55;19.60;57.00
30244;DHT22;64022;53.652;9.792;2023-03-30T03:36:21;19.60;57.00
30244;DHT22;64022;53.652;9.792;2023-03-30T03:38:49;19.60;57.00
30244;DHT22;64022;53.652;9.792;2023-03-30T03:41:15;19.60;57.00
30244;DHT22;64022;53.652;9.792;2023-03-30T03:43:40;19.60;57.00
30244;DHT22;64022;53.652;9.792;2023-03-30T03:46:06;19.60;57.00
30244;DHT22;64022;53.652;9.792;2023-03-30T03:48:31;19.60;57.50
30244;DHT22;64022;53.652;9.792;2023-03-30T03:50:57;19.60;57.00
30244;DHT22;64022;53.652;9.792;2023-03-30T03:53:25;19.60;57.00
30244;DHT22;64022;53.652;9.792;2023-03-30T03:55:51;19.60;57.00
30244;DHT22;64022;53.652;9.792;2023-03-30T03:58:17;19.60;57.00
30244;DHT22;64022;53.652;9.792;2023-03-30T04:00:43;19.60;57.10
30244;DHT22;64022;53.652;9.792;2023-03-30T04:03:09;19.60;57.20
30244;DHT22;64022;53.652;9.792;2023-03-30T04:05:36;19.60;57.10
30244;DHT22;64022;53.652;9.792;2023-03-30T04:08:03;19.60;57.10
30244;DHT22;64022;53.652;9.792;2023-03-30T04:10:28;19.60;57.10
30244;DHT22;64022;53.652;9.792;2023-03-30T04:12:54;19.60;57.20
30244;DHT22;64022;53.652;9.792;2023-03-30T04:15:21;19.60;57.20
30244;DHT22;64022;53.652;9.792;2023-03-30T04:17:47;19.60;57.20
30244;DHT22;64022;53.652;9.792;2023-03-30T04:20:15;19.60;57.20
30244;DHT22;64022;53.652;9.792;2023-03-30T04:22:41;19.60;57.30
30244;DHT22;64022;53.652;9.792;2023-03-30T04:25:08;19.60;56.90
30244;DHT22;64022;53.652;9.792;2023-03-30T04:27:38;19.60;57.40
30244;DHT22;64022;53.652;9.792;2023-03-30T04:30:07;19.60;57.40
30244;DHT22;64022;53.652;9.792;2023-03-30T04:32:33;19.60;57.40
30244;DHT22;64022;53.652;9.792;2023-03-30T04:35:00;19.60;57.40
30244;DHT22;64022;53.652;9.792;2023-03-30T04:37:26;19.60;57.40
30244;DHT22;64022;53.652;9.792;2023-03-30T04:40:01;19.60;57.10
30244;DHT22;64022;53.652;9.792;2023-03-30T04:42:32;19.60;57.50
30244;DHT22;64022;53.652;9.792;2023-03-30T04:45:06;19.50;57.10
30244;DHT22;64022;53.652;9.792;2023-03-30T04:47:33;19.50;57.60
30244;DHT22;64022;53.652;9.792;2023-03-30T04:49:59;19.60;57.70
30244;DHT22;64022;53.652;9.792;2023-03-30T04:52:25;19.60;57.60
30244;DHT22;64022;53.652;9.792;2023-03-30T04:54:51;19.60;57.60
30244;DHT22;64022;53.652;9.792;2023-03-30T04:57:17;19.60;57.60
30244;DHT22;64022;53.652;9.792;2023-03-30T04:59:43;19.60;57.60
30244;DHT22;64022;53.652;9.792;2023-03-30T05:02:10;19.60;57.70
30244;DHT22;64022;53.652;9.792;2023-03-30T05:04:36;19.60;57.70
30244;DHT22;64022;53.652;9.792;2023-03-30T05:07:01;19.60;57.30
30244;DHT22;64022;53.652;9.792;2023-03-30T05:09:27;19.60;57.80
30244;DHT22;64022;53.652;9.792;2023-03-30T05:11:53;19.60;57.80
30244;DHT22;64022;53.652;9.792;2023-03-30T05:14:19;19.60;57.80
30244;DHT22;64022;53.652;9.792;2023-03-30T05:16:44;19.60;57.80
30244;DHT22;64022;53.652;9.792;2023-03-30T05:19:10;19.60;57.90
30244;DHT22;64022;53.652;9.792;2023-03-30T05:21:36;19.60;57.90
30244;DHT22;64022;53.652;9.792;2023-03-30T05:24:01;19.60;57.90
30244;DHT22;64022;53.652;9.792;2023-03-30T05:26:27;19.60;57.90
30244;DHT22;64022;53.652;9.792;2023-03-30T05:28:53;19.60;57.90
30244;DHT22;64022;53.652;9.792;2023-03-30T05:31:19;19.60;58.40
30244;DHT22;64022;53.652;9.792;2023-03-30T05:33:46;19.60;57.90
30244;DHT22;64022;53.652;9.792;2023-03-30T05:36:12;19.60;58.00
30244;DHT22;64022;53.652;9.792;2023-03-30T05:38:38;19.60;58.00
30244;DHT22;64022;53.652;9.792;2023-03-30T05:41:04;19.60;58.00
30244;DHT22;64022;53.652;9.792;2023-03-30T05:43:32;19.60;58.00
30244;DHT22;64022;53.652;9.792;2023-03-30T05:45:57;19.60;58.10
30244;DHT22;64022;53.652;9.792;2023-03-30T05:48:23;19.60;58.10
30244;DHT22;64022;53.652;9.792;2023-03-30T05:50:49;19.60;58.10
30244;DHT22;64022;53.652;9.792;2023-03-30T05:53:15;19.60;58.20
30244;DHT22;64022;53.652;9.792;2023-03-30T05:55:48;19.60;58.20
30244;DHT22;64022;53.652;9.792;2023-03-30T05:58:14;19.60;58.20
30244;DHT22;64022;53.652;9.792;2023-03-30T06:00:43;19.60;58.20
30244;DHT22;64022;53.652;9.792;2023-03-30T06:03:10;19.60;58.10
30244;DHT22;64022;53.652;9.792;2023-03-30T06:05:39;19.60;58.30
30244;DHT22;64022;53.652;9.792;2023-03-30T06:08:08;19.60;58.40
30244;DHT22;64022;53.652;9.792;2023-03-30T06:10:35;19.60;58.40
30244;DHT22;64022;53.652;9.792;2023-03-30T06:13:00;19.60;58.50
30244;DHT22;64022;53.652;9.792;2023-03-30T06:15:26;19.60;58.50
30244;DHT22;64022;53.652;9.792;2023-03-30T06:17:52;19.70;58.60
30244;DHT22;64022;53.652;9.792;2023-03-30T06:20:18;19.70;58.70
30244;DHT22;64022;53.652;9.792;2023-03-30T06:22:48;19.70;58.70
30244;DHT22;64022;53.652;9.792;2023-03-30T06:25:14;19.60;58.70
30244;DHT22;64022;53.652;9.792;2023-03-30T06:27:40;19.60;58.80
30244;DHT22;64022;53.652;9.792;2023-03-30T06:30:06;19.70;58.90
30244;DHT22;64022;53.652;9.792;2023-03-30T06:32:34;19.70;59.00
30244;DHT22;64022;53.652;9.792;2023-03-30T06:35:00;19.70;59.10
30244;DHT22;64022;53.652;9.792;2023-03-30T06:37:32;19.70;59.20
30244;DHT22;64022;53.652;9.792;2023-03-30T06:39:59;19.70;59.20
30244;DHT22;64022;53.652;9.792;2023-03-30T06:42:28;19.70;59.30
30244;DHT22;64022;53.652;9.792;2023-03-30T06:44:53;19.70;59.30
30244;DHT22;64022;53.652;9.792;2023-03-30T06:47:19;19.70;59.40
30244;DHT22;64022;53.652;9.792;2023-03-30T06:49:44;19.70;59.40
30244;DHT22;64022;53.652;9.792;2023-03-30T06:52:10;19.70;59.40
30244;DHT22;64022;53.652;9.792;2023-03-30T06:54:37;19.70;59.50
30244;DHT22;64022;53.652;9.792;2023-03-30T06:57:02;19.70;59.00
30244;DHT22;64022;53.652;9.792;2023-03-30T06:59:28;19.70;59.60
30244;DHT22;64022;53.652;9.792;2023-03-30T07:01:53;19.70;59.70
30244;DHT22;64022;53.652;9.792;2023-03-30T07:04:19;19.70;59.70
30244;DHT22;64022;53.652;9.792;2023-03-30T07:06:46;19.70;59.70
30244;DHT22;64022;53.652;9.792;2023-03-30T07:09:11;19.70;59.70
30244;DHT22;64022;53.652;9.792;2023-03-30T07:11:37;19.70;59.80
30244;DHT22;64022;53.652;9.792;2023-03-30T07:14:02;19.70;59.80
30244;DHT22;64022;53.652;9.792;2023-03-30T07:16:30;19.70;59.80
30244;DHT22;64022;53.652;9.792;2023-03-30T07:18:56;19.70;59.80
30244;DHT22;64022;53.652;9.792;2023-03-30T07:21:21;19.70;59.80
30244;DHT22;64022;53.652;9.792;2023-03-30T07:23:47;19.70;59.90
30244;DHT22;64022;53.652;9.792;2023-03-30T07:26:12;19.70;59.90
30244;DHT22;64022;53.652;9.792;2023-03-30T07:28:38;19.70;59.90
30244;DHT22;64022;53.652;9.792;2023-03-30T07:31:06;19.70;59.90
30244;DHT22;64022;53.652;9.792;2023-03-30T07:33:32;19.70;60.00
30244;DHT22;64022;53.652;9.792;2023-03-30T07:35:57;19.70;60.00
30244;DHT22;64022;53.652;9.792;2023-03-30T07:38:23;19.80;60.00
30244;DHT22;64022;53.652;9.792;2023-03-30T07:40:49;19.70;60.00
30244;DHT22;64022;53.652;9.792;2023-03-30T07:43:14;19.70;60.00
30244;DHT22;64022;53.652;9.792;2023-03-30T07:45:40;19.70;60.00
30244;DHT22;64022;53.652;9.792;2023-03-30T07:48:05;19.70;60.10
30244;DHT22;64022;53.652;9.792;2023-03-30T07:50:31;19.70;60.00
30244;DHT22;64022;53.652;9.792;2023-03-30T07:52:57;19.80;60.20
30244;DHT22;64022;53.652;9.792;2023-03-30T07:55:22;19.80;60.20
30244;DHT22;64022;53.652;9.792;2023-03-30T07:57:48;19.70;60.10
30244;DHT22;64022;53.652;9.792;2023-03-30T08:00:14;19.80;60.20
30244;DHT22;64022;53.652;9.792;2023-03-30T08:02:40;19.80;60.20
30244;DHT22;64022;53.652;9.792;2023-03-30T08:05:07;19.80;60.30
30244;DHT22;64022;53.652;9.792;2023-03-30T08:07:33;19.80;60.30
30244;DHT22;64022;53.652;9.792;2023-03-30T08:09:59;19.80;60.30
30244;DHT22;64022;53.652;9.792;2023-03-30T08:12:25;19.80;60.30
30244;DHT22;64022;53.652;9.792;2023-03-30T08:14:51;19.80;60.40
30244;DHT22;64022;53.652;9.792;2023-03-30T08:17:16;19.80;60.40
30244;DHT22;64022;53.652;9.792;2023-03-30T08:19:43;19.80;60.90
30244;DHT22;64022;53.652;9.792;2023-03-30T08:22:09;19.80;60.40
30244;DHT22;64022;53.652;9.792;2023-03-30T08:24:34;19.80;60.40
30244;DHT22;64022;53.652;9.792;2023-03-30T08:27:00;19.80;60.40
30244;DHT22;64022;53.652;9.792;2023-03-30T08:29:26;19.80;60.50
30244;DHT22;64022;53.652;9.792;2023-03-30T08:31:51;19.80;60.50
30244;DHT22;64022;53.652;9.792;2023-03-30T08:34:17;19.80;60.50
30244;DHT22;64022;53.652;9.792;2023-03-30T08:36:43;19.80;60.50
30244;DHT22;64022;53.652;9.792;2023-03-30T08:39:09;19.90;60.60
30244;DHT22;64022;53.652;9.792;2023-03-30T08:41:52;19.90;60.60
30244;DHT22;64022;53.652;9.792;2023-03-30T08:46:53;19.90;60.60
30244;DHT22;64022;53.652;9.792;2023-03-30T08:49:19;19.90;60.70
30244;DHT22;64022;53.652;9.792;2023-03-30T08:51:48;19.90;60.70
30244;DHT22;64022;53.652;9.792;2023-03-30T08:54:17;19.90;60.70
30244;DHT22;64022;53.652;9.792;2023-03-30T08:57:05;19.90;60.70
30244;DHT22;64022;53.652;9.792;2023-03-30T09:02:21;19.90;60.60
30244;DHT22;64022;53.652;9.792;2023-03-30T09:05:01;19.90;60.80
30244;DHT22;64022;53.652;9.792;2023-03-30T09:07:58;20.00;60.80
30244;DHT22;64022;53.652;9.792;2023-03-30T09:10:29;19.90;60.60
30244;DHT22;64022;53.652;9.792;2023-03-30T09:12:59;19.90;60.80
30244;DHT22;64022;53.652;9.792;2023-03-30T09:15:38;19.90;60.80
30244;DHT22;64022;53.652;9.792;2023-03-30T09:20:53;20.00;60.80
30244;DHT22;64022;53.652;9.792;2023-03-30T09:23:20;19.90;60.80
30244;DHT22;64022;53.652;9.792;2023-03-30T09:28:33;20.00;60.90
30244;DHT22;64022;53.652;9.792;2023-03-30T09:34:02;20.00;61.40
30244;DHT22;64022;53.652;9.792;2023-03-30T09:36:51;19.90;60.90
30244;DHT22;64022;53.652;9.792;2023-03-30T09:39:22;20.00;60.80
30244;DHT22;64022;53.652;9.792;2023-03-30T09:44:44;19.90;60.80
30244;DHT22;64022;53.652;9.792;2023-03-30T09:47:22;19.90;60.80
30244;DHT22;64022;53.652;9.792;2023-03-30T09:49:47;20.00;60.90
30244;DHT22;64022;53.652;9.792;2023-03-30T09:52:21;19.90;60.90
30244;DHT22;64022;53.652;9.792;2023-03-30T09:54:47;20.00;61.00
30244;DHT22;64022;53.652;9.792;2023-03-30T09:57:30;20.00;61.00
30244;DHT22;64022;53.652;9.792;2023-03-30T09:59:57;20.00;60.90
30244;DHT22;64022;53.652;9.792;2023-03-30T10:02:25;19.90;61.00
30244;DHT22;64022;53.652;9.792;2023-03-30T10:09:49;20.00;61.20
30244;DHT22;64022;53.652;9.792;2023-03-30T10:12:16;20.00;61.40
30244;DHT22;64022;53.652;9.792;2023-03-30T10:14:42;20.00;61.40
30244;DHT22;64022;53.652;9.792;2023-03-30T10:17:18;20.00;61.60
30244;DHT22;64022;53.652;9.792;2023-03-30T10:19:45;20.10;61.70
30244;DHT22;64022;53.652;9.792;2023-03-30T10:22:19;20.10;61.90
30244;DHT22;64022;53.652;9.792;2023-03-30T10:24:54;20.10;61.90
30244;DHT22;64022;53.652;9.792;2023-03-30T10:27:41;20.10;62.10
30244;DHT22;64022;53.652;9.792;2023-03-30T10:30:11;20.10;61.80
30244;DHT22;64022;53.652;9.792;2023-03-30T10:32:37;20.10;62.20
30244;DHT22;64022;53.652;9.792;2023-03-30T10:35:07;20.10;62.30
30244;DHT22;64022;53.652;9.792;2023-03-30T10:37:37;20.10;62.30
30244;DHT22;64022;53.652;9.792;2023-03-30T10:40:15;20.10;62.50
30244;DHT22;64022;53.652;9.792;2023-03-30T10:42:41;20.10;62.50
30244;DHT22;64022;53.652;9.792;2023-03-30T10:45:18;20.10;62.60
30244;DHT22;64022;53.652;9.792;2023-03-30T10:48:07;20.20;62.70
30244;DHT22;64022;53.652;9.792;2023-03-30T10:56:38;20.20;62.80
30244;DHT22;64022;53.652;9.792;2023-03-30T11:07:40;20.20;63.30
30244;DHT22;64022;53.652;9.792;2023-03-30T11:10:20;20.10;63.50
30244;DHT22;64022;53.652;9.792;2023-03-30T11:12:53;20.20;63.50
30244;DHT22;64022;53.652;9.792;2023-03-30T11:18:10;20.20;63.70
30244;DHT22;64022;53.652;9.792;2023-03-30T11:20:46;20.20;63.70
30244;DHT22;64022;53.652;9.792;2023-03-30T11:23:32;20.20;64.00
30244;DHT22;64022;53.652;9.792;2023-03-30T11:26:04;20.20;63.90
30244;DHT22;64022;53.652;9.792;2023-03-30T11:34:30;20.20;63.60
30244;DHT22;64022;53.652;9.792;2023-03-30T11:42:35;20.10;63.60
30244;DHT22;64022;53.652;9.792;2023-03-30T11:45:15;20.10;63.70
30244;DHT22;64022;53.652;9.792;2023-03-30T11:47:54;20.10;64.40
30244;DHT22;64022;53.652;9.792;2023-03-30T11:56:04;20.20;64.50
30244;DHT22;64022;53.652;9.792;2023-03-30T11:58:35;20.20;64.60
30244;DHT22;64022;53.652;9.792;2023-03-30T12:01:05;20.20;64.80
30244;DHT22;64022;53.652;9.792;2023-03-30T12:09:05;20.20;64.80
30244;DHT22;64022;53.652;9.792;2023-03-30T12:11:54;20.20;64.90
30244;DHT22;64022;53.652;9.792;2023-03-30T12:17:10;20.20;65.00
30244;DHT22;64022;53.652;9.792;2023-03-30T12:19:44;20.20;65.20
30244;DHT22;64022;53.652;9.792;2023-03-30T12:22:15;20.20;65.20
30244;DHT22;64022;53.652;9.792;2023-03-30T12:24:53;20.20;65.20
30244;DHT22;64022;53.652;9.792;2023-03-30T12:27:25;20.20;65.20
30244;DHT22;64022;53.652;9.792;2023-03-30T12:29:52;20.30;65.30
30244;DHT22;64022;53.652;9.792;2023-03-30T12:32:26;20.20;65.40
30244;DHT22;64022;53.652;9.792;2023-03-30T12:34:53;20.20;65.40
30244;DHT22;64022;53.652;9.792;2023-03-30T12:37:22;20.20;65.50
30244;DHT22;64022;53.652;9.792;2023-03-30T12:42:28;20.20;65.60
30244;DHT22;64022;53.652;9.792;2023-03-30T12:45:28;20.20;65.60
30244;DHT22;64022;53.652;9.792;2023-03-30T12:48:09;20.30;65.50
30244;DHT22;64022;53.652;9.792;2023-03-30T12:50:56;20.20;65.70
30244;DHT22;64022;53.652;9.792;2023-03-30T12:53:40;20.30;65.80
30244;DHT22;64022;53.652;9.792;2023-03-30T12:56:27;20.30;65.90
30244;DHT22;64022;53.652;9.792;2023-03-30T13:01:38;20.30;65.90
30244;DHT22;64022;53.652;9.792;2023-03-30T13:04:20;20.30;65.90
30244;DHT22;64022;53.652;9.792;2023-03-30T13:24:57;20.30;66.30
30244;DHT22;64022;53.652;9.792;2023-03-30T13:27:26;20.30;66.20
30244;DHT22;64022;53.652;9.792;2023-03-30T13:30:11;20.20;66.40
30244;DHT22;64022;53.652;9.792;2023-03-30T13:35:39;20.30;66.40
30244;DHT22;64022;53.652;9.792;2023-03-30T13:41:08;20.30;66.20
30244;DHT22;64022;53.652;9.792;2023-03-30T13:43:44;20.30;66.40
30244;DHT22;64022;53.652;9.792;2023-03-30T13:51:35;20.30;66.30
30244;DHT22;64022;53.652;9.792;2023-03-30T13:54:26;20.30;66.50
30244;DHT22;64022;53.652;9.792;2023-03-30T13:57:20;20.30;66.40
30244;DHT22;64022;53.652;9.792;2023-03-30T13:59:51;20.30;66.30
30244;DHT22;64022;53.652;9.792;2023-03-30T14:02:20;20.30;66.60
30244;DHT22;64022;53.652;9.792;2023-03-30T14:04:46;20.30;66.60
30244;DHT22;64022;53.652;9.792;2023-03-30T14:07:16;20.30;66.60
30244;DHT22;64022;53.652;9.792;2023-03-30T14:09:44;20.30;66.50
30244;DHT22;64022;53.652;9.792;2023-03-30T14:12:25;20.30;66.60
30244;DHT22;64022;53.652;9.792;2023-03-30T14:14:52;20.40;66.60
30244;DHT22;64022;53.652;9.792;2023-03-30T14:17:22;20.30;66.50
30244;DHT22;64022;53.652;9.792;2023-03-30T14:20:13;20.30;66.60
30244;DHT22;64022;53.652;9.792;2023-03-30T14:22:45;20.30;66.50
30244;DHT22;64022;53.652;9.792;2023-03-30T14:25:26;20.30;66.60
30244;DHT22;64022;53.652;9.792;2023-03-30T14:27:55;20.40;66.70
30244;DHT22;64022;53.652;9.792;2023-03-30T14:30:26;20.30;66.80
30244;DHT22;64022;53.652;9.792;2023-03-30T14:33:26;20.30;66.70
30244;DHT22;64022;53.652;9.792;2023-03-30T14:35:56;20.40;66.50
30244;DHT22;64022;53.652;9.792;2023-03-30T14:38:25;20.40;66.80
30244;DHT22;64022;53.652;9.792;2023-03-30T14:40:53;20.30;66.70
30244;DHT22;64022;53.652;9.792;2023-03-30T14:43:24;20.30;66.70
30244;DHT22;64022;53.652;9.792;2023-03-30T14:45:52;20.30;66.60
30244;DHT22;64022;53.652;9.792;2023-03-30T14:48:27;20.30;66.80
30244;DHT22;64022;53.652;9.792;2023-03-30T14:50:54;20.30;66.70
30244;DHT22;64022;53.652;9.792;2023-03-30T14:53:23;20.30;66.80
30244;DHT22;64022;53.652;9.792;2023-03-30T14:55:50;20.40;66.90
30244;DHT22;64022;53.652;9.792;2023-03-30T14:58:23;20.30;66.80
30244;DHT22;64022;53.652;9.792;2023-03-30T15:00:53;20.30;67.20
30244;DHT22;64022;53.652;9.792;2023-03-30T15:03:22;20.30;66.70
30244;DHT22;64022;53.652;9.792;2023-03-30T15:05:47;20.30;66.70
30244;DHT22;64022;53.652;9.792;2023-03-30T15:08:24;20.40;66.70
30244;DHT22;64022;53.652;9.792;2023-03-30T15:10:59;20.40;66.70
30244;DHT22;64022;53.652;9.792;2023-03-30T15:13:35;20.40;66.70
30244;DHT22;64022;53.652;9.792;2023-03-30T15:16:03;20.30;66.60
30244;DHT22;64022;53.652;9.792;2023-03-30T15:18:31;20.30;66.60
30244;DHT22;64022;53.652;9.792;2023-03-30T15:20:58;20.40;66.70
30244;DHT22;64022;53.652;9.792;2023-03-30T15:23:29;20.40;66.60
30244;DHT22;64022;53.652;9.792;2023-03-30T15:25:59;20.40;66.60
30244;DHT22;64022;53.652;9.792;2023-03-30T15:28:31;20.40;66.60
30244;DHT22;64022;53.652;9.792;2023-03-30T15:30:57;20.40;66.60
30244;DHT22;64022;53.652;9.792;2023-03-30T15:33:44;20.40;66.60
30244;DHT22;64022;53.652;9.792;2023-03-30T15:36:19;20.40;66.50
30244;DHT22;64022;53.652;9.792;2023-03-30T15:38:56;20.40;66.60
30244;DHT22;64022;53.652;9.792;2023-03-30T15:44:21;20.40;66.50
30244;DHT22;64022;53.652;9.792;2023-03-30T15:46:49;20.40;66.60
30244;DHT22;64022;53.652;9.792;2023-03-30T15:49:17;20.40;66.60
30244;DHT22;64022;53.652;9.792;2023-03-30T15:51:46;20.40;66.60
30244;DHT22;64022;53.652;9.792;2023-03-30T15:54:15;20.40;66.60
30244;DHT22;64022;53.652;9.792;2023-03-30T15:56:58;20.40;66.60
30244;DHT22;64022;53.652;9.792;2023-03-30T15:59:30;20.40;66.60
30244;DHT22;64022;53.652;9.792;2023-03-30T16:02:01;20.40;66.70
30244;DHT22;64022;53.652;9.792;2023-03-30T16:04:30;20.40;66.70
30244;DHT22;64022;53.652;9.792;2023-03-30T16:06:56;20.40;66.70
30244;DHT22;64022;53.652;9.792;2023-03-30T16:09:22;20.40;66.70
30244;DHT22;64022;53.652;9.792;2023-03-30T16:11:48;20.50;66.70
30244;DHT22;64022;53.652;9.792;2023-03-30T16:14:17;20.40;66.70
30244;DHT22;64022;53.652;9.792;2023-03-30T16:16:47;20.50;66.80
30244;DHT22;64022;53.652;9.792;2023-03-30T16:19:14;20.50;66.80
30244;DHT22;64022;53.652;9.792;2023-03-30T16:21:41;20.50;66.80
30244;DHT22;64022;53.652;9.792;2023-03-30T16:24:07;20.50;66.90
30244;DHT22;64022;53.652;9.792;2023-03-30T16:26:33;20.50;66.90
30244;DHT22;64022;53.652;9.792;2023-03-30T16:28:58;20.50;66.10
30244;DHT22;64022;53.652;9.792;2023-03-30T16:31:24;20.40;65.00
30244;DHT22;64022;53.652;9.792;2023-03-30T16:33:49;20.30;64.40
30244;DHT22;64022;53.652;9.792;2023-03-30T16:36:17;20.20;63.90
30244;DHT22;64022;53.652;9.792;2023-03-30T16:38:44;20.10;63.60
30244;DHT22;64022;53.652;9.792;2023-03-30T16:41:14;20.00;63.30
30244;DHT22;64022;53.652;9.792;2023-03-30T16:43:40;20.00;63.10
30244;DHT22;64022;53.652;9.792;2023-03-30T16:46:06;19.90;62.80
30244;DHT22;64022;53.652;9.792;2023-03-30T16:48:31;19.80;62.70
30244;DHT22;64022;53.652;9.792;2023-03-30T16:50:57;19.70;62.40
30244;DHT22;64022;53.652;9.792;2023-03-30T16:53:23;19.70;62.30
30244;DHT22;64022;53.652;9.792;2023-03-30T16:55:48;19.70;62.20
30244;DHT22;64022;53.652;9.792;2023-03-30T16:58:14;19.60;62.00
30244;DHT22;64022;53.652;9.792;2023-03-30T17:00:49;19.60;61.80
30244;DHT22;64022;53.652;9.792;2023-03-30T17:03:16;19.50;61.60
30244;DHT22;64022;53.652;9.792;2023-03-30T17:05:42;19.50;62.00
30244;DHT22;64022;53.652;9.792;2023-03-30T17:08:20;19.50;62.30
30244;DHT22;64022;53.652;9.792;2023-03-30T17:10:46;19.50;62.50
30244;DHT22;64022;53.652;9.792;2023-03-30T17:13:12;19.60;62.70
30244;DHT22;64022;53.652;9.792;2023-03-30T17:15:37;19.60;62.80
30244;DHT22;64022;53.652;9.792;2023-03-30T17:18:16;19.60;62.80
30244;DHT22;64022;53.652;9.792;2023-03-30T17:20:47;19.70;62.90
30244;DHT22;64022;53.652;9.792;2023-03-30T17:23:14;19.70;63.00
30244;DHT22;64022;53.652;9.792;2023-03-30T17:25:41;19.70;63.10
30244;DHT22;64022;53.652;9.792;2023-03-30T17:28:09;19.70;63.20
30244;DHT22;64022;53.652;9.792;2023-03-30T17:30:37;19.80;63.30
30244;DHT22;64022;53.652;9.792;2023-03-30T17:33:05;19.80;63.30
30244;DHT22;64022;53.652;9.792;2023-03-30T17:35:35;19.90;63.40
30244;DHT22;64022;53.652;9.792;2023-03-30T17:38:01;19.90;63.50
30244;DHT22;64022;53.652;9.792;2023-03-30T17:40:28;19.90;63.50
30244;DHT22;64022;53.652;9.792;2023-03-30T17:42:56;19.90;63.50
30244;DHT22;64022;53.652;9.792;2023-03-30T17:45:24;19.90;63.60
30244;DHT22;64022;53.652;9.792;2023-03-30T17:47:50;20.00;63.70
30244;DHT22;64022;53.652;9.792;2023-03-30T17:50:22;20.00;63.70
30244;DHT22;64022;53.652;9.792;2023-03-30T17:52:48;20.00;63.70
30244;DHT22;64022;53.652;9.792;2023-03-30T17:55:15;20.00;63.80
30244;DHT22;64022;53.652;9.792;2023-03-30T17:57:41;20.00;64.30
30244;DHT22;64022;53.652;9.792;2023-03-30T18:02:38;20.00;63.90
30244;DHT22;64022;53.652;9.792;2023-03-30T18:05:04;20.00;64.00